createdAt,value
2019-06-15T07:58:24.247Z,4.20
2019-06-15T08:00:25.635Z,4.00
2019-06-15T08:02:37.298Z,4.40
2019-06-15T08:04:48.129Z,2.93
2019-06-15T08:06:59.063Z,4.40
2019-06-15T08:09:09.892Z,2.57
2019-06-15T08:11:20.748Z,1.60
2019-06-15T08:13:31.596Z,2.63
2019-06-15T08:15:42.448Z,2.93
2019-06-15T08:17:53.269Z,3.03
2019-06-15T08:20:09.373Z,4.20
2019-06-15T08:22:20.222Z,3.87
2019-06-15T08:24:31.049Z,2.43
2019-06-15T08:26:42.781Z,3.17
2019-06-15T08:28:53.654Z,1.90
2019-06-15T08:31:06.707Z,2.10
2019-06-15T08:33:17.546Z,2.47
2019-06-15T08:35:28.407Z,2.50
2019-06-15T08:37:39.434Z,3.27
2019-06-15T08:39:50.376Z,1.67
2019-06-15T08:42:01.210Z,1.90
2019-06-15T08:44:12.024Z,1.60
2019-06-15T08:46:23.081Z,1.37
2019-06-15T08:48:36.895Z,4.23
2019-06-15T08:50:47.736Z,1.77
2019-06-15T08:52:58.650Z,1.60
2019-06-15T08:55:09.461Z,5.30
2019-06-15T08:57:20.302Z,4.10
2019-06-15T08:59:31.132Z,5.60
2019-06-15T09:01:41.974Z,3.10
2019-06-15T09:03:52.797Z,4.93
2019-06-15T09:06:03.718Z,3.40
2019-06-15T09:08:14.555Z,3.43
2019-06-15T09:10:25.381Z,2.53
2019-06-15T09:12:38.252Z,2.03
2019-06-15T09:14:49.076Z,1.87
2019-06-15T09:17:00.023Z,1.37
2019-06-15T09:19:10.865Z,2.57
2019-06-15T09:21:21.788Z,3.67
2019-06-15T09:23:32.645Z,2.50
2019-06-15T09:25:43.563Z,2.33
2019-06-15T09:27:54.432Z,2.77
2019-06-15T09:30:06.071Z,3.03
2019-06-15T09:32:16.957Z,2.77
2019-06-15T09:34:27.799Z,2.40
2019-06-15T09:36:38.600Z,1.83
2019-06-15T09:38:49.734Z,1.67
2019-06-15T09:41:00.608Z,3.53
2019-06-15T09:43:11.468Z,2.90
2019-06-15T09:45:22.475Z,2.57
2019-06-15T09:47:33.340Z,1.47
2019-06-15T09:49:44.202Z,1.83
2019-06-15T09:51:55.038Z,2.17
2019-06-15T09:54:05.958Z,4.80
2019-06-15T09:56:16.876Z,3.53
2019-06-15T09:58:27.721Z,3.17
2019-06-15T10:00:38.545Z,1.50
2019-06-15T10:02:49.376Z,2.93
2019-06-15T10:05:00.222Z,3.70
2019-06-15T10:07:11.053Z,1.30
2019-06-15T10:09:21.908Z,2.70
2019-06-15T10:11:32.725Z,6.37
2019-06-15T10:13:43.598Z,2.93
2019-06-15T10:15:54.455Z,5.17
2019-06-15T10:18:05.403Z,3.27
2019-06-15T10:20:16.455Z,3.17
2019-06-15T10:22:27.285Z,1.60
2019-06-15T10:24:38.123Z,3.37
2019-06-15T10:26:49.122Z,2.27
2019-06-15T10:29:00.084Z,2.73
2019-06-15T10:31:11.067Z,3.40
2019-06-15T10:33:21.874Z,1.50
2019-06-15T10:35:32.721Z,1.63
2019-06-15T10:37:43.553Z,1.53
2019-06-15T10:39:54.500Z,3.37
2019-06-15T10:42:05.546Z,2.70
2019-06-15T10:44:16.534Z,3.53
2019-06-15T10:46:27.372Z,2.13
2019-06-15T10:48:38.210Z,2.63
2019-06-15T10:50:49.070Z,4.13
2019-06-15T10:52:59.965Z,3.70
2019-06-15T10:55:11.102Z,2.83
2019-06-15T10:57:21.920Z,5.03
2019-06-15T10:59:32.983Z,4.30
2019-06-15T11:01:43.919Z,4.40
2019-06-15T11:03:54.821Z,5.43
2019-06-15T11:06:05.631Z,2.70
2019-06-15T11:08:16.487Z,3.60
2019-06-15T11:10:54.073Z,3.40
2019-06-15T11:13:05.016Z,2.80
2019-06-15T11:15:15.980Z,2.80
2019-06-15T11:17:26.919Z,4.67
2019-06-15T11:19:37.843Z,2.47
2019-06-15T11:21:48.679Z,3.80
2019-06-15T11:23:59.701Z,3.70
2019-06-15T11:26:10.566Z,4.27
2019-06-15T11:28:21.410Z,1.50
2019-06-15T11:30:32.289Z,4.10
2019-06-15T11:32:43.115Z,2.40
2019-06-15T11:34:53.995Z,2.87
2019-06-15T11:37:04.823Z,3.50
2019-06-15T11:39:15.893Z,2.53
2019-06-15T11:41:26.829Z,2.73
2019-06-15T11:43:37.758Z,2.77
2019-06-15T11:45:48.675Z,4.43
2019-06-15T11:47:59.538Z,2.67
2019-06-15T11:50:12.028Z,4.63
2019-06-15T11:52:23.097Z,3.03
2019-06-15T11:54:34.025Z,2.63
2019-06-15T11:56:44.859Z,2.40
2019-06-15T11:58:55.737Z,2.77
2019-06-15T12:01:07.083Z,2.33
2019-06-15T12:03:17.938Z,2.87
2019-06-15T12:05:29.367Z,2.73
2019-06-15T12:07:40.320Z,2.13
2019-06-15T12:09:51.171Z,4.73
2019-06-15T12:12:02.148Z,3.97
2019-06-15T12:14:12.976Z,1.20
2019-06-15T12:16:23.815Z,4.73
2019-06-15T12:18:34.781Z,6.50
2019-06-15T12:20:45.636Z,3.50
2019-06-15T12:22:56.491Z,2.80
2019-06-15T12:25:07.841Z,1.60
2019-06-15T12:27:18.694Z,2.70
2019-06-15T12:29:29.574Z,2.10
2019-06-15T12:31:40.447Z,1.93
2019-06-15T12:33:51.368Z,4.00
2019-06-15T12:36:02.293Z,1.53
2019-06-15T12:38:13.193Z,2.83
2019-06-15T12:40:24.132Z,2.03
2019-06-15T12:42:34.995Z,1.47
2019-06-15T12:44:45.826Z,1.40
2019-06-15T12:46:56.662Z,3.73
2019-06-15T12:49:07.517Z,1.20
2019-06-15T12:51:18.388Z,1.43
2019-06-15T12:53:29.243Z,1.77
2019-06-15T12:55:40.090Z,2.43
2019-06-15T12:57:52.975Z,3.40
2019-06-15T13:00:07.609Z,1.43
2019-06-15T13:02:18.456Z,2.17
2019-06-15T13:04:29.294Z,1.23
2019-06-15T13:06:42.074Z,2.07
2019-06-15T13:08:52.940Z,1.47
2019-06-15T13:11:03.809Z,1.40
2019-06-15T13:13:14.869Z,2.93
2019-06-15T13:15:25.732Z,2.53
2019-06-15T13:17:36.555Z,1.40
2019-06-15T13:19:47.409Z,1.93
2019-06-15T13:21:58.270Z,1.57
2019-06-15T13:24:09.094Z,1.50
2019-06-15T13:26:19.940Z,2.63
2019-06-15T13:28:30.887Z,2.80
2019-06-15T13:30:41.786Z,1.73
2019-06-15T13:32:52.624Z,1.53
2019-06-15T13:35:05.584Z,2.53
2019-06-15T13:37:16.453Z,1.50
2019-06-15T13:39:27.489Z,3.37
2019-06-15T13:41:38.357Z,1.53
2019-06-15T13:43:49.183Z,1.93
2019-06-15T13:46:00.057Z,5.37
2019-06-15T13:48:11.775Z,1.30
2019-06-15T13:50:22.776Z,2.67
2019-06-15T13:52:33.681Z,1.50
2019-06-15T13:54:44.642Z,1.90
2019-06-15T13:56:55.577Z,2.70
2019-06-15T13:59:06.447Z,1.77
2019-06-15T14:01:17.246Z,1.20
2019-06-15T14:03:28.206Z,1.67
2019-06-15T14:05:39.363Z,3.33
2019-06-15T14:07:50.286Z,1.50
2019-06-15T14:10:01.636Z,1.63
2019-06-15T14:12:12.593Z,1.50
2019-06-15T14:14:23.399Z,1.70
2019-06-15T14:16:34.280Z,3.70
2019-06-15T14:18:45.102Z,3.03
2019-06-15T14:20:56.065Z,2.73
2019-06-15T14:23:06.993Z,1.07
2019-06-15T14:25:17.820Z,1.20
2019-06-15T14:27:28.674Z,1.23
2019-06-15T14:29:39.607Z,1.70
2019-06-15T14:31:50.842Z,1.73
2019-06-15T14:34:01.738Z,1.30
2019-06-15T14:36:14.772Z,1.20
2019-06-15T14:38:25.661Z,1.23
2019-06-15T14:40:36.578Z,2.50
2019-06-15T14:42:49.341Z,1.10
2019-06-15T14:45:00.160Z,1.57
2019-06-15T14:47:10.997Z,1.83
2019-06-15T14:49:21.831Z,1.20
2019-06-15T14:51:32.668Z,1.50
2019-06-15T14:53:49.851Z,1.93
2019-06-15T14:55:56.605Z,1.63
2019-06-15T14:58:07.534Z,1.63
2019-06-15T15:00:18.857Z,1.67
2019-06-15T15:02:29.696Z,1.10
2019-06-15T15:04:40.642Z,1.20
2019-06-15T15:06:51.475Z,1.63
2019-06-15T15:09:03.707Z,1.23
2019-06-15T15:11:16.924Z,1.13
2019-06-15T15:13:27.271Z,0.93
2019-06-15T15:15:38.196Z,1.77
2019-06-15T15:17:49.230Z,2.00
2019-06-15T15:20:03.773Z,1.10
2019-06-15T15:22:12.820Z,1.07
2019-06-15T15:24:23.800Z,1.40
2019-06-15T15:26:36.915Z,1.37
2019-06-15T15:28:47.616Z,1.10
2019-06-15T15:30:58.478Z,2.00
2019-06-15T15:33:09.422Z,1.77
2019-06-15T15:35:20.312Z,1.30
2019-06-15T15:37:31.142Z,0.80
2019-06-15T15:39:41.998Z,1.60
2019-06-15T15:41:52.836Z,2.20
2019-06-15T15:44:03.791Z,1.27
2019-06-15T15:46:16.547Z,1.47
2019-06-15T15:48:27.351Z,1.40
2019-06-15T15:50:38.277Z,2.03
2019-06-15T15:52:49.310Z,1.13
2019-06-15T15:55:00.166Z,2.03
2019-06-15T15:57:10.987Z,1.20
2019-06-15T15:59:21.836Z,1.03
2019-06-15T16:01:32.707Z,1.50
2019-06-15T16:03:43.538Z,1.60
2019-06-15T16:05:56.103Z,4.47
2019-06-15T16:08:07.114Z,1.73
2019-06-15T16:10:18.053Z,1.10
2019-06-15T16:12:28.995Z,2.37
2019-06-15T16:14:39.845Z,1.50
2019-06-15T16:16:50.812Z,1.87
2019-06-15T16:19:01.650Z,1.93
2019-06-15T16:21:12.589Z,1.60
2019-06-15T16:23:23.436Z,1.33
2019-06-15T16:25:37.009Z,2.57
2019-06-15T16:27:48.934Z,2.23
2019-06-15T16:29:59.894Z,2.40
2019-06-15T16:32:10.750Z,1.87
2019-06-15T16:34:21.607Z,1.30
2019-06-15T16:36:32.478Z,1.67
2019-06-15T16:38:43.310Z,3.20
2019-06-15T16:40:56.126Z,2.00
2019-06-15T16:43:07.637Z,2.63
2019-06-15T16:45:18.488Z,1.67
2019-06-15T16:47:29.327Z,1.70
2019-06-15T16:49:40.141Z,3.97
2019-06-15T16:51:51.116Z,2.33
2019-06-15T16:54:02.070Z,1.70
2019-06-15T16:56:12.892Z,1.53
2019-06-15T16:58:26.342Z,2.00
2019-06-15T17:00:36.613Z,2.67
2019-06-15T17:02:47.720Z,1.60
2019-06-15T17:04:58.561Z,2.20
2019-06-15T17:07:09.404Z,1.70
2019-06-15T17:09:22.142Z,2.83
2019-06-15T17:11:33.093Z,1.30
2019-06-15T17:13:43.914Z,4.17
2019-06-15T17:15:57.091Z,2.43
2019-06-15T17:18:07.719Z,1.77
2019-06-15T17:20:22.339Z,4.50
2019-06-15T17:22:35.332Z,1.93
2019-06-15T17:24:46.074Z,2.10
2019-06-15T17:26:57.145Z,2.43
2019-06-15T17:29:08.078Z,1.90
2019-06-15T17:31:18.961Z,1.63
2019-06-15T17:33:37.725Z,1.73
2019-06-15T17:35:55.129Z,2.60
2019-06-15T17:37:56.447Z,3.10
2019-06-15T17:40:07.722Z,3.10
2019-06-15T17:42:18.581Z,2.57
2019-06-15T17:44:29.422Z,2.63
2019-06-15T17:46:40.249Z,3.00
2019-06-15T17:48:51.089Z,1.83
2019-06-15T17:51:02.035Z,1.53
2019-06-15T17:53:12.870Z,1.50
2019-06-15T17:55:23.800Z,1.60
2019-06-15T17:57:36.095Z,1.67
2019-06-15T17:59:47.164Z,1.60
2019-06-15T18:01:58.010Z,1.70
2019-06-15T18:04:08.831Z,2.57
2019-06-15T18:06:19.668Z,2.07
2019-06-15T18:08:30.515Z,2.97
2019-06-15T18:10:41.382Z,2.10
2019-06-15T18:12:52.237Z,2.47
2019-06-15T18:15:06.565Z,1.77
2019-06-15T18:17:17.406Z,2.43
2019-06-15T18:19:28.280Z,3.73
2019-06-15T18:21:41.166Z,2.40
2019-06-15T18:23:51.987Z,2.40
2019-06-15T18:26:03.022Z,3.00
2019-06-15T18:28:17.124Z,2.27
2019-06-15T18:30:27.243Z,2.83
2019-06-15T18:32:38.155Z,3.20
2019-06-15T18:34:49.135Z,3.10
2019-06-15T18:36:59.995Z,2.50
2019-06-15T18:39:10.852Z,2.17
2019-06-15T18:41:21.709Z,2.60
2019-06-15T18:43:32.567Z,1.77
2019-06-15T18:45:43.399Z,2.10
2019-06-15T18:47:56.559Z,2.10
2019-06-15T18:50:07.789Z,2.07
2019-06-15T18:52:18.607Z,2.20
2019-06-15T18:54:29.473Z,2.67
2019-06-15T18:56:42.214Z,3.87
2019-06-15T18:58:56.109Z,2.70
2019-06-15T19:01:07.007Z,2.90
2019-06-15T19:03:18.327Z,2.50
2019-06-15T19:05:29.251Z,2.70
2019-06-15T19:07:40.111Z,3.33
2019-06-15T19:09:51.070Z,4.00
2019-06-15T19:12:02.015Z,4.33
2019-06-15T19:14:12.980Z,4.87
2019-06-15T19:16:23.846Z,3.30
2019-06-15T19:18:37.042Z,2.73
2019-06-15T19:20:47.515Z,3.80
2019-06-15T19:22:58.308Z,2.80
2019-06-15T19:25:09.241Z,5.60
2019-06-15T19:27:20.214Z,3.30
2019-06-15T19:29:31.118Z,2.80
2019-06-15T19:31:41.955Z,4.27
2019-06-15T19:33:52.774Z,2.63
2019-06-15T19:36:06.188Z,3.70
2019-06-15T19:38:16.578Z,2.80
2019-06-15T19:40:27.526Z,3.90
2019-06-15T19:42:38.379Z,2.50
2019-06-15T19:44:49.246Z,4.70
2019-06-15T19:47:00.528Z,3.30
2019-06-15T19:49:11.468Z,3.43
2019-06-15T19:51:22.298Z,4.20
2019-06-15T19:53:36.180Z,3.87
2019-06-15T19:55:46.627Z,3.03
2019-06-15T19:57:57.597Z,4.27
2019-06-15T20:00:08.851Z,3.10
2019-06-15T20:02:19.693Z,3.37
2019-06-15T20:04:30.541Z,3.10
2019-06-15T20:06:41.436Z,2.83
2019-06-15T20:08:52.285Z,3.73
2019-06-15T20:11:03.356Z,2.90
2019-06-15T20:13:14.308Z,3.17
2019-06-15T20:15:26.257Z,2.93
2019-06-15T20:17:37.616Z,4.00
2019-06-15T20:19:48.463Z,3.07
2019-06-15T20:22:00.881Z,2.60
2019-06-15T20:24:11.771Z,2.70
2019-06-15T20:26:22.731Z,3.20
2019-06-15T20:28:33.779Z,3.70
2019-06-15T20:30:46.231Z,3.67
2019-06-15T20:32:57.227Z,3.07
2019-06-15T20:35:16.529Z,3.40
2019-06-15T20:37:21.637Z,4.13
2019-06-15T20:39:32.500Z,2.70
2019-06-15T20:41:43.352Z,4.40
2019-06-15T20:43:56.521Z,2.67
2019-06-15T20:46:07.346Z,3.60
2019-06-15T20:48:18.320Z,4.63
2019-06-15T20:50:29.160Z,3.10
2019-06-15T20:52:40.030Z,3.10
2019-06-15T20:54:50.850Z,3.13
2019-06-15T20:57:01.825Z,2.83
2019-06-15T20:59:12.748Z,5.63
2019-06-15T21:01:25.882Z,3.20
2019-06-15T21:03:36.860Z,3.43
2019-06-15T21:05:48.198Z,4.37
2019-06-15T21:07:59.037Z,4.00
2019-06-15T21:10:10.368Z,3.83
2019-06-15T21:12:21.309Z,3.57
2019-06-15T21:14:32.191Z,4.20
2019-06-15T21:16:43.004Z,3.60
2019-06-15T21:18:53.844Z,6.17
2019-06-15T21:21:06.892Z,4.33
2019-06-15T21:23:17.521Z,5.10
2019-06-15T21:25:28.387Z,3.00
2019-06-15T21:27:39.357Z,3.77
2019-06-15T21:29:50.424Z,4.13
2019-06-15T21:32:01.309Z,3.40
2019-06-15T21:34:12.142Z,3.33
2019-06-15T21:36:22.962Z,3.37
2019-06-15T21:38:36.037Z,3.80
2019-06-15T21:40:47.516Z,3.17
2019-06-15T21:42:58.740Z,3.73
2019-06-15T21:45:09.968Z,5.60
2019-06-15T21:47:20.899Z,3.80
2019-06-15T21:49:31.735Z,3.50
2019-06-15T21:51:42.681Z,3.60
2019-06-15T21:53:55.900Z,6.20
2019-06-15T21:56:07.228Z,4.03
2019-06-15T21:58:18.359Z,6.53
2019-06-15T22:00:50.165Z,8.37
2019-06-15T22:03:01.540Z,9.03
2019-06-15T22:05:12.692Z,11.30
2019-06-15T22:07:26.024Z,9.67
2019-06-15T22:09:36.603Z,7.70
2019-06-15T22:11:47.475Z,5.30
2019-06-15T22:13:58.327Z,9.13
2019-06-15T22:16:09.161Z,5.63
2019-06-15T22:18:19.995Z,5.13
2019-06-15T22:20:30.905Z,6.70
2019-06-15T22:22:41.732Z,6.73
2019-06-15T22:24:52.573Z,8.97
2019-06-15T22:27:03.529Z,11.03
2019-06-15T22:29:16.798Z,6.67
2019-06-15T22:31:27.915Z,6.17
2019-06-15T22:33:38.754Z,7.07
2019-06-15T22:35:49.611Z,5.33
2019-06-15T22:38:00.445Z,7.47
2019-06-15T22:40:11.550Z,6.37
2019-06-15T22:42:22.476Z,5.90
2019-06-15T22:44:33.316Z,8.20
2019-06-15T22:46:46.481Z,8.30
2019-06-15T22:48:59.833Z,6.00
2019-06-15T22:51:10.822Z,5.93
2019-06-15T22:53:21.636Z,6.30
2019-06-15T22:55:32.474Z,5.73
2019-06-15T22:57:45.941Z,6.87
2019-06-15T22:59:56.740Z,8.43
2019-06-15T23:02:07.742Z,4.93
2019-06-15T23:04:18.568Z,5.37
2019-06-15T23:06:37.495Z,6.90
2019-06-15T23:08:42.124Z,5.83
2019-06-15T23:10:52.961Z,5.53
2019-06-15T23:13:06.304Z,5.90
2019-06-15T23:15:17.399Z,5.37
2019-06-15T23:17:28.512Z,6.33
2019-06-15T23:19:39.322Z,7.00
2019-06-15T23:21:50.172Z,5.17
2019-06-15T23:24:00.995Z,5.93
2019-06-15T23:26:11.800Z,7.13
2019-06-15T23:28:22.658Z,6.90
2019-06-15T23:30:36.363Z,6.77
2019-06-15T23:32:47.060Z,6.47
2019-06-15T23:34:58.089Z,6.53
2019-06-15T23:37:10.839Z,5.63
2019-06-15T23:39:21.649Z,6.43
2019-06-15T23:41:32.509Z,6.73
2019-06-15T23:43:43.331Z,5.80
2019-06-15T23:45:56.121Z,6.50
2019-06-15T23:48:06.911Z,7.27
2019-06-15T23:50:18.263Z,6.27
2019-06-15T23:52:29.086Z,6.67
2019-06-15T23:54:39.923Z,6.07
2019-06-15T23:56:50.753Z,6.77
2019-06-15T23:59:01.587Z,6.37
